createdAt,value
2023-02-14T00:00:49.895Z,83.05
2023-02-14T00:03:17.862Z,82.61
2023-02-14T00:05:44.781Z,83.28
2023-02-14T00:08:11.390Z,82.94
2023-02-14T00:10:39.058Z,82.71
2023-02-14T00:13:05.950Z,83.62
2023-02-14T00:15:35.578Z,82.79
2023-02-14T00:18:04.227Z,83.35
2023-02-14T00:20:30.645Z,82.72
2023-02-14T00:22:57.473Z,82.79
2023-02-14T00:25:26.450Z,83.46
2023-02-14T00:27:54.395Z,83.10
2023-02-14T00:30:21.009Z,82.74
2023-02-14T00:32:47.778Z,83.25
2023-02-14T00:35:15.172Z,82.91
2023-02-14T00:37:41.672Z,83.68
2023-02-14T00:40:09.085Z,83.37
2023-02-14T00:42:35.601Z,83.31
2023-02-14T00:45:02.190Z,83.17
2023-02-14T00:47:28.710Z,83.74
2023-02-14T00:49:59.330Z,83.71
2023-02-14T00:52:25.677Z,83.21
2023-02-14T00:54:52.096Z,82.93
2023-02-14T00:57:18.518Z,83.53
2023-02-14T00:59:45.078Z,83.94
2023-02-14T01:02:11.670Z,83.55
2023-02-14T01:04:38.139Z,83.19
2023-02-14T01:07:06.080Z,83.96
2023-02-14T01:09:32.643Z,83.42
2023-02-14T01:12:01.862Z,84.50
2023-02-14T01:14:30.678Z,83.73
2023-02-14T01:16:57.141Z,84.48
2023-02-14T01:19:26.079Z,84.33
2023-02-14T01:21:52.595Z,84.83
2023-02-14T01:24:22.854Z,84.48
2023-02-14T01:26:49.365Z,84.47
2023-02-14T01:29:15.882Z,84.99
2023-02-14T01:31:44.931Z,84.63
2023-02-14T01:34:11.744Z,85.16
2023-02-14T01:36:39.783Z,85.58
2023-02-14T01:39:15.369Z,85.00
2023-02-14T01:41:48.516Z,85.15
2023-02-14T01:44:16.120Z,85.36
2023-02-14T01:46:44.546Z,85.21
2023-02-14T01:49:28.203Z,85.33
2023-02-14T01:52:10.935Z,85.69
2023-02-14T01:54:43.669Z,85.98
2023-02-14T01:57:14.506Z,86.20
2023-02-14T01:59:48.143Z,85.63
2023-02-14T02:02:15.989Z,85.69
2023-02-14T02:04:46.927Z,86.20
2023-02-14T02:07:23.262Z,85.69
2023-02-14T02:09:58.120Z,86.16
2023-02-14T02:12:24.842Z,85.95
2023-02-14T02:14:54.726Z,86.51
2023-02-14T02:17:36.926Z,86.19
2023-02-14T02:20:36.432Z,86.46
2023-02-14T02:23:57.166Z,86.47
2023-02-14T02:26:45.759Z,86.65
2023-02-14T02:29:46.413Z,86.90
2023-02-14T02:32:16.738Z,86.53
2023-02-14T02:35:09.313Z,86.32
2023-02-14T02:38:04.220Z,87.03
2023-02-14T02:41:09.523Z,86.87
2023-02-14T02:43:54.064Z,86.91
2023-02-14T02:46:47.896Z,86.91
2023-02-14T02:49:51.754Z,87.33
2023-02-14T02:52:46.072Z,86.72
2023-02-14T02:55:56.134Z,86.85
2023-02-14T02:58:29.769Z,87.23
2023-02-14T03:00:59.492Z,87.00
2023-02-14T03:03:48.532Z,86.94
2023-02-14T03:06:15.009Z,87.79
2023-02-14T03:08:43.593Z,87.41
2023-02-14T03:11:13.967Z,87.31
2023-02-14T03:13:51.761Z,87.54
2023-02-14T03:16:39.660Z,87.43
2023-02-14T03:19:11.321Z,87.54
2023-02-14T03:21:46.963Z,87.79
2023-02-14T03:24:31.646Z,87.50
2023-02-14T03:27:15.049Z,87.65
2023-02-14T03:30:01.192Z,88.14
2023-02-14T03:32:45.504Z,88.01
2023-02-14T03:35:20.140Z,88.35
2023-02-14T03:37:57.001Z,88.18
2023-02-14T03:40:49.554Z,88.03
2023-02-14T03:43:22.454Z,88.54
2023-02-14T03:45:55.210Z,88.29
2023-02-14T03:48:24.903Z,88.20
2023-02-14T03:50:52.893Z,88.50
2023-02-14T03:53:24.123Z,88.64
2023-02-14T03:56:13.976Z,87.99
2023-02-14T03:58:45.305Z,88.44
2023-02-14T04:01:23.407Z,88.47
2023-02-14T04:03:56.231Z,88.40
2023-02-14T04:06:22.889Z,88.77
2023-02-14T04:08:49.360Z,88.39
2023-02-14T04:11:16.218Z,88.33
2023-02-14T04:13:44.336Z,88.63
2023-02-14T04:16:10.963Z,88.47
2023-02-14T04:18:56.431Z,88.60
2023-02-14T04:21:23.010Z,88.78
2023-02-14T04:23:49.667Z,88.66
2023-02-14T04:26:16.310Z,88.46
2023-02-14T04:28:42.806Z,88.66
2023-02-14T04:31:11.583Z,88.58
2023-02-14T04:33:39.271Z,88.64
2023-02-14T04:36:14.821Z,88.73
2023-02-14T04:38:41.329Z,88.73
2023-02-14T04:41:07.869Z,88.95
2023-02-14T04:43:35.268Z,88.45
2023-02-14T04:46:01.821Z,88.58
2023-02-14T04:48:28.315Z,88.66
2023-02-14T04:50:55.167Z,88.58
2023-02-14T04:53:21.931Z,88.33
2023-02-14T04:55:49.875Z,88.80
2023-02-14T04:58:16.421Z,88.37
2023-02-14T05:00:42.939Z,88.54
2023-02-14T05:03:10.416Z,88.51
2023-02-14T05:05:36.923Z,88.27
2023-02-14T05:08:03.617Z,88.23
2023-02-14T05:10:30.084Z,88.38
2023-02-14T05:12:56.641Z,88.63
2023-02-14T05:15:23.394Z,88.54
2023-02-14T05:17:49.879Z,88.49
2023-02-14T05:20:18.724Z,88.40
2023-02-14T05:22:45.230Z,88.44
2023-02-14T05:25:11.710Z,88.44
2023-02-14T05:27:38.384Z,88.50
2023-02-14T05:30:05.476Z,88.32
2023-02-14T05:32:32.055Z,88.72
2023-02-14T05:35:00.970Z,88.79
2023-02-14T05:37:27.627Z,88.59
2023-02-14T05:39:54.182Z,88.77
2023-02-14T05:42:20.641Z,88.75
2023-02-14T05:44:48.229Z,88.79
2023-02-14T05:47:14.991Z,88.81
2023-02-14T05:49:41.444Z,88.88
2023-02-14T05:52:08.052Z,88.92
2023-02-14T05:54:34.701Z,89.22
2023-02-14T05:57:01.227Z,88.88
2023-02-14T05:59:32.358Z,88.93
2023-02-14T06:01:58.939Z,89.07
2023-02-14T06:04:25.724Z,89.04
2023-02-14T06:06:52.186Z,89.26
2023-02-14T06:09:20.192Z,89.23
2023-02-14T06:11:46.755Z,89.38
2023-02-14T06:14:14.638Z,89.38
2023-02-14T06:16:41.199Z,89.37
2023-02-14T06:19:07.984Z,89.51
2023-02-14T06:21:34.802Z,89.68
2023-02-14T06:24:01.501Z,89.76
2023-02-14T06:26:29.113Z,89.55
2023-02-14T06:28:56.930Z,89.72
2023-02-14T06:31:24.380Z,89.58
2023-02-14T06:33:52.451Z,89.65
2023-02-14T06:36:19.850Z,89.50
2023-02-14T06:38:47.956Z,89.90
2023-02-14T06:41:17.372Z,89.65
2023-02-14T06:43:44.982Z,89.81
2023-02-14T06:46:11.776Z,90.25
2023-02-14T06:48:38.296Z,90.04
2023-02-14T06:51:04.915Z,90.11
2023-02-14T06:53:36.724Z,90.40
2023-02-14T06:56:06.043Z,90.26
2023-02-14T06:58:32.702Z,90.59
2023-02-14T07:01:00.179Z,90.09
2023-02-14T07:03:27.585Z,90.23
2023-02-14T07:05:55.679Z,90.11
2023-02-14T07:08:22.256Z,90.45
2023-02-14T07:10:51.158Z,90.44
2023-02-14T07:13:18.768Z,90.62
2023-02-14T07:15:47.111Z,90.54
2023-02-14T07:18:13.720Z,90.12
2023-02-14T07:20:40.528Z,90.44
2023-02-14T07:23:07.028Z,90.35
2023-02-14T07:25:33.634Z,90.56
2023-02-14T07:28:00.230Z,90.51
2023-02-14T07:30:26.748Z,90.65
2023-02-14T07:32:53.479Z,90.70
2023-02-14T07:35:22.708Z,90.16
2023-02-14T07:37:52.547Z,90.58
2023-02-14T07:40:23.015Z,90.55
2023-02-14T07:42:58.072Z,90.41
2023-02-14T07:45:25.653Z,90.29
2023-02-14T07:47:54.145Z,90.54
2023-02-14T07:50:23.068Z,90.46
2023-02-14T07:52:51.814Z,90.61
2023-02-14T07:55:22.106Z,90.38
2023-02-14T07:57:49.247Z,90.84
2023-02-14T08:00:16.203Z,90.80
2023-02-14T08:02:42.854Z,90.54
2023-02-14T08:05:09.555Z,90.16
2023-02-14T08:07:36.231Z,90.22
2023-02-14T08:10:02.704Z,89.67
2023-02-14T08:12:48.270Z,89.45
2023-02-14T08:15:33.771Z,87.79
2023-02-14T08:18:00.236Z,86.38
2023-02-14T08:20:26.820Z,85.34
2023-02-14T08:22:53.386Z,83.13
2023-02-14T08:25:20.160Z,82.12
2023-02-14T08:27:49.699Z,80.80
2023-02-14T08:30:16.643Z,78.67
2023-02-14T08:32:43.516Z,75.27
2023-02-14T08:35:10.031Z,72.65
2023-02-14T08:37:36.674Z,70.48
2023-02-14T08:40:03.404Z,67.86
2023-02-14T08:42:30.319Z,66.67
2023-02-14T08:45:16.560Z,65.24
2023-02-14T08:47:48.857Z,64.06
2023-02-14T08:50:17.359Z,62.92
2023-02-14T08:52:44.540Z,61.59
2023-02-14T08:58:21.610Z,59.86
2023-02-14T09:00:48.201Z,59.01
2023-02-14T09:03:14.775Z,58.80
2023-02-14T09:05:41.736Z,58.67
2023-02-14T09:08:08.535Z,58.37
2023-02-14T09:10:47.712Z,60.35
2023-02-14T09:13:15.369Z,57.96
2023-02-14T09:15:41.900Z,57.46
2023-02-14T09:18:16.307Z,57.27
2023-02-14T09:20:45.832Z,56.63
2023-02-14T09:23:12.546Z,55.89
2023-02-14T09:25:39.295Z,55.42
2023-02-14T09:28:59.397Z,57.08
2023-02-14T09:31:59.678Z,56.43
2023-02-14T09:34:46.551Z,56.32
2023-02-14T09:37:33.126Z,56.00
2023-02-14T09:40:00.857Z,55.88
2023-02-14T09:42:45.917Z,56.85
2023-02-14T09:45:25.567Z,55.68
2023-02-14T09:48:06.168Z,55.55
2023-02-14T09:50:47.369Z,55.56
2023-02-14T09:53:49.359Z,55.35
2023-02-14T09:56:42.847Z,53.48
2023-02-14T09:59:25.699Z,52.58
2023-02-14T10:01:59.363Z,52.10
2023-02-14T10:04:39.760Z,53.57
2023-02-14T10:07:35.076Z,52.43
2023-02-14T10:10:08.849Z,51.66
2023-02-14T10:12:46.102Z,52.09
2023-02-14T10:15:41.611Z,51.17
2023-02-14T10:18:24.601Z,49.46
2023-02-14T10:21:05.156Z,49.84
2023-02-14T10:23:47.581Z,49.82
2023-02-14T10:30:13.122Z,47.38
2023-02-14T10:32:46.765Z,48.04
2023-02-14T10:35:22.667Z,48.09
2023-02-14T10:38:40.780Z,47.22
2023-02-14T10:41:24.086Z,46.78
2023-02-14T10:44:14.731Z,46.69
2023-02-14T10:47:02.265Z,46.08
2023-02-14T10:50:11.483Z,44.96
2023-02-14T10:53:01.453Z,45.46
2023-02-14T10:55:54.977Z,44.25
2023-02-14T10:58:28.434Z,43.55
2023-02-14T11:01:03.895Z,42.45
2023-02-14T11:03:32.995Z,41.83
2023-02-14T11:06:01.021Z,41.59
2023-02-14T11:08:33.779Z,41.79
2023-02-14T11:11:13.690Z,41.95
2023-02-14T11:13:40.653Z,42.14
2023-02-14T11:16:31.485Z,42.39
2023-02-14T11:20:16.624Z,41.55
2023-02-14T11:23:48.745Z,42.13
2023-02-14T11:37:43.470Z,42.23
2023-02-14T11:44:23.598Z,42.01
2023-02-14T11:46:55.941Z,40.64
2023-02-14T11:49:57.745Z,39.71
2023-02-14T11:52:28.812Z,39.66
2023-02-14T11:54:58.538Z,40.39
2023-02-14T11:57:52.640Z,40.84
2023-02-14T12:00:30.144Z,39.55
2023-02-14T12:03:20.243Z,38.56
2023-02-14T12:06:06.204Z,40.02
2023-02-14T12:09:19.437Z,39.82
2023-02-14T12:19:54.963Z,38.44
2023-02-14T12:22:34.043Z,38.26
2023-02-14T12:26:17.388Z,38.63
2023-02-14T12:28:54.584Z,38.77
2023-02-14T12:56:51.389Z,45.43
2023-02-14T13:02:24.586Z,46.12
2023-02-14T13:17:36.325Z,48.89
2023-02-14T13:42:34.579Z,50.69
2023-02-14T13:57:27.237Z,50.68
2023-02-14T14:04:35.122Z,50.46
2023-02-14T14:07:30.705Z,50.49
2023-02-14T14:10:36.850Z,51.00
2023-02-14T14:13:03.554Z,51.25
2023-02-14T14:15:31.729Z,51.73
2023-02-14T14:18:13.418Z,51.51
2023-02-14T14:20:42.145Z,52.15
2023-02-14T14:23:37.211Z,51.78
2023-02-14T14:26:23.849Z,51.48
2023-02-14T14:28:50.469Z,51.86
2023-02-14T14:31:20.488Z,51.92
2023-02-14T14:33:47.222Z,51.71
2023-02-14T14:36:23.377Z,52.34
2023-02-14T14:38:54.540Z,52.63
2023-02-14T14:44:15.150Z,52.72
2023-02-14T14:46:42.097Z,53.37
2023-02-14T14:49:11.149Z,54.10
2023-02-14T14:51:43.530Z,53.63
2023-02-14T14:54:12.752Z,53.58
2023-02-14T14:56:51.094Z,53.65
2023-02-14T14:59:40.137Z,54.15
2023-02-14T15:02:28.179Z,53.65
2023-02-14T15:04:57.890Z,53.95
2023-02-14T15:07:32.914Z,54.25
2023-02-14T15:10:00.603Z,54.87
2023-02-14T15:12:46.946Z,54.49
2023-02-14T15:15:16.772Z,54.03
2023-02-14T15:17:44.071Z,54.30
2023-02-14T15:20:18.672Z,55.57
2023-02-14T15:22:50.572Z,55.03
2023-02-14T15:25:21.462Z,55.42
2023-02-14T15:27:51.966Z,55.44
2023-02-14T15:59:01.191Z,58.20
2023-02-14T16:08:54.700Z,58.39
2023-02-14T16:12:29.983Z,58.92
2023-02-14T16:15:19.761Z,59.51
2023-02-14T16:17:50.935Z,59.97
2023-02-14T16:20:53.499Z,60.09
2023-02-14T16:23:25.056Z,60.29
2023-02-14T16:25:53.273Z,60.82
2023-02-14T16:28:30.466Z,60.94
2023-02-14T16:31:16.096Z,61.12
2023-02-14T16:33:42.890Z,61.72
2023-02-14T16:36:32.222Z,61.55
2023-02-14T16:39:02.126Z,62.32
2023-02-14T16:41:30.280Z,62.56
2023-02-14T16:47:30.561Z,62.71
2023-02-14T16:56:26.825Z,63.79
2023-02-14T16:58:58.062Z,63.66
2023-02-14T17:01:27.441Z,64.09
2023-02-14T17:03:57.388Z,63.67
2023-02-14T17:09:25.398Z,63.92
2023-02-14T17:11:54.234Z,64.15
2023-02-14T17:14:30.227Z,64.05
2023-02-14T17:16:58.479Z,64.42
2023-02-14T17:19:25.699Z,65.00
2023-02-14T17:21:53.701Z,65.10
2023-02-14T17:24:20.284Z,65.39
2023-02-14T17:27:12.230Z,65.26
2023-02-14T17:29:52.123Z,65.04
2023-02-14T17:32:44.159Z,65.59
2023-02-14T17:35:11.952Z,65.78
2023-02-14T17:37:39.565Z,66.27
2023-02-14T17:40:10.516Z,66.49
2023-02-14T17:42:38.785Z,66.76
2023-02-14T17:45:11.647Z,66.71
2023-02-14T17:47:39.926Z,66.53
2023-02-14T17:50:07.397Z,66.81
2023-02-14T17:52:34.410Z,67.02
2023-02-14T17:55:00.961Z,67.09
2023-02-14T17:57:27.489Z,67.26
2023-02-14T17:59:54.028Z,67.69
2023-02-14T18:02:20.619Z,67.62
2023-02-14T18:04:48.243Z,67.54
2023-02-14T18:07:14.789Z,67.90
2023-02-14T18:09:41.315Z,68.18
2023-02-14T18:12:10.343Z,67.96
2023-02-14T18:14:41.431Z,68.48
2023-02-14T18:17:08.071Z,68.36
2023-02-14T18:19:37.781Z,68.41
2023-02-14T18:22:06.074Z,69.18
2023-02-14T18:24:32.681Z,68.53
2023-02-14T18:26:59.271Z,69.01
2023-02-14T18:29:25.770Z,69.10
2023-02-14T18:31:52.457Z,69.62
2023-02-14T18:34:19.081Z,69.58
2023-02-14T18:36:45.791Z,69.79
2023-02-14T18:39:23.969Z,69.55
2023-02-14T18:41:53.581Z,69.03
2023-02-14T18:44:45.191Z,68.69
2023-02-14T18:47:15.727Z,69.71
2023-02-14T18:49:55.208Z,68.92
2023-02-14T18:52:25.643Z,69.79
2023-02-14T18:55:36.844Z,69.73
2023-02-14T18:57:53.718Z,69.79
2023-02-14T19:00:23.028Z,69.88
2023-02-14T19:03:01.112Z,69.86
2023-02-14T19:05:36.093Z,69.25
2023-02-14T19:08:19.169Z,70.08
2023-02-14T19:10:46.126Z,70.27
2023-02-14T19:13:29.280Z,70.77
2023-02-14T19:15:56.680Z,70.93
2023-02-14T19:18:26.443Z,70.79
2023-02-14T19:20:53.089Z,70.88
2023-02-14T19:23:19.839Z,71.33
2023-02-14T19:25:46.346Z,71.40
2023-02-14T19:28:13.542Z,71.57
2023-02-14T19:30:40.055Z,71.74
2023-02-14T19:33:06.949Z,71.78
2023-02-14T19:35:36.748Z,71.34
2023-02-14T19:38:53.539Z,71.57
2023-02-14T19:46:02.482Z,71.88
2023-02-14T19:49:19.296Z,72.29
2023-02-14T19:51:53.168Z,72.52
2023-02-14T19:54:21.919Z,72.62
2023-02-14T19:57:28.251Z,72.06
2023-02-14T20:06:51.229Z,72.73
2023-02-14T20:09:18.836Z,73.13
2023-02-14T20:12:47.500Z,72.71
2023-02-14T20:15:35.261Z,72.55
2023-02-14T20:18:04.649Z,73.06
2023-02-14T20:21:18.225Z,72.71
2023-02-14T20:59:46.443Z,74.20
2023-02-14T21:06:15.087Z,74.22
2023-02-14T21:08:42.898Z,74.61
2023-02-14T21:12:15.405Z,74.74
2023-02-14T21:15:47.638Z,74.99
2023-02-14T21:18:44.455Z,75.01
2023-02-14T21:21:47.158Z,74.75
2023-02-14T21:25:16.825Z,75.09
2023-02-14T21:28:51.687Z,75.62
2023-02-14T21:31:57.427Z,75.46
2023-02-14T21:34:41.848Z,75.66
2023-02-14T21:37:22.255Z,75.48
2023-02-14T21:39:52.505Z,75.48
2023-02-14T21:42:27.110Z,75.79
2023-02-14T21:45:59.007Z,75.88
2023-02-14T21:52:51.556Z,75.94
2023-02-14T21:56:02.871Z,76.11
2023-02-14T22:01:47.979Z,76.61
2023-02-14T22:04:20.295Z,76.39
2023-02-14T22:07:39.480Z,76.37
2023-02-14T22:10:55.855Z,76.30
2023-02-14T22:13:24.688Z,76.90
2023-02-14T22:16:45.212Z,76.68
2023-02-14T22:19:45.682Z,76.54
2023-02-14T22:34:06.437Z,76.55
2023-02-14T22:36:45.159Z,77.59
2023-02-14T22:42:33.483Z,76.88
2023-02-14T22:45:14.422Z,77.76
2023-02-14T22:48:50.496Z,77.47
2023-02-14T23:00:32.931Z,77.55
2023-02-14T23:03:09.312Z,77.95
2023-02-14T23:05:40.036Z,78.36
2023-02-14T23:08:32.486Z,78.25
2023-02-14T23:11:25.655Z,77.74
2023-02-14T23:14:13.966Z,78.44
2023-02-14T23:17:07.165Z,78.06
2023-02-14T23:20:23.129Z,78.46
2023-02-14T23:22:50.412Z,78.53
2023-02-14T23:25:26.906Z,78.77
2023-02-14T23:27:53.679Z,78.86
2023-02-14T23:30:20.500Z,78.24
2023-02-14T23:32:47.617Z,78.91
2023-02-14T23:35:17.515Z,78.38
2023-02-14T23:37:56.003Z,78.93
2023-02-14T23:40:25.743Z,78.82
2023-02-14T23:42:54.566Z,78.47
2023-02-14T23:45:38.864Z,79.36
2023-02-14T23:48:24.008Z,78.79
2023-02-14T23:50:50.604Z,79.58
2023-02-14T23:53:17.657Z,78.91
2023-02-14T23:55:47.409Z,79.70
2023-02-14T23:58:14.628Z,79.70
